sensor_id;sensor_type;location;lat;lon;timestamp;noise_LAeq;noise_LA_min;noise_LA_max;noise_LA01;noise_LA95
71030;Laerm;63723;51.436;5.976;2023-04-30T00:00:05;55.52;53.51;56.90;;
71030;Laerm;63723;51.436;5.976;2023-04-30T00:00:19;55.46;53.77;56.72;;
71030;Laerm;63723;51.436;5.976;2023-04-30T00:00:29;55.40;54.00;56.93;;
71030;Laerm;63723;51.436;5.976;2023-04-30T00:00:40;55.37;53.82;56.23;;
71030;Laerm;63723;51.436;5.976;2023-04-30T00:00:50;55.45;53.40;56.86;;
71030;Laerm;63723;51.436;5.976;2023-04-30T00:01:00;55.58;53.92;56.83;;
71030;Laerm;63723;51.436;5.976;2023-04-30T00:01:10;55.72;54.41;56.69;;
71030;Laerm;63723;51.436;5.976;2023-04-30T00:01:21;55.67;53.77;57.01;;
71030;Laerm;63723;51.436;5.976;2023-04-30T00:01:31;55.71;53.92;56.95;;
71030;Laerm;63723;51.436;5.976;2023-04-30T00:01:41;55.65;54.24;57.13;;
71030;Laerm;63723;51.436;5.976;2023-04-30T00:01:51;55.64;54.00;57.10;;
71030;Laerm;63723;51.436;5.976;2023-04-30T00:02:02;55.61;53.81;56.71;;
71030;Laerm;63723;51.436;5.976;2023-04-30T00:02:12;55.71;54.07;57.00;;
71030;Laerm;63723;51.436;5.976;2023-04-30T00:02:22;55.73;54.57;56.67;;
71030;Laerm;63723;51.436;5.976;2023-04-30T00:02:33;55.71;54.12;56.80;;
71030;Laerm;63723;51.436;5.976;2023-04-30T00:02:43;55.67;54.04;56.72;;
71030;Laerm;63723;51.436;5.976;2023-04-30T00:02:53;55.67;54.17;56.69;;
71030;Laerm;63723;51.436;5.976;2023-04-30T00:03:04;55.65;53.81;56.83;;
71030;Laerm;63723;51.436;5.976;2023-04-30T00:03:14;55.63;53.72;56.79;;
71030;Laerm;63723;51.436;5.976;2023-04-30T00:03:25;55.62;54.22;56.68;;
71030;Laerm;63723;51.436;5.976;2023-04-30T00:03:35;55.69;54.29;56.99;;
71030;Laerm;63723;51.436;5.976;2023-04-30T00:03:45;55.64;53.96;56.84;;
71030;Laerm;63723;51.436;5.976;2023-04-30T00:03:55;55.61;54.15;56.74;;
71030;Laerm;63723;51.436;5.976;2023-04-30T00:04:06;55.58;54.10;56.74;;
71030;Laerm;63723;51.436;5.976;2023-04-30T00:04:16;55.63;54.31;56.92;;
71030;Laerm;63723;51.436;5.976;2023-04-30T00:04:26;55.76;54.39;57.14;;
71030;Laerm;63723;51.436;5.976;2023-04-30T00:04:36;55.94;54.39;57.08;;
71030;Laerm;63723;51.436;5.976;2023-04-30T00:04:47;55.95;54.20;57.12;;
71030;Laerm;63723;51.436;5.976;2023-04-30T00:04:57;55.96;53.86;57.43;;
71030;Laerm;63723;51.436;5.976;2023-04-30T00:05:07;55.99;54.16;57.19;;
71030;Laerm;63723;51.436;5.976;2023-04-30T00:05:18;55.89;53.84;57.05;;
71030;Laerm;63723;51.436;5.976;2023-04-30T00:05:28;55.93;54.29;57.03;;
71030;Laerm;63723;51.436;5.976;2023-04-30T00:05:39;56.00;54.09;57.50;;
71030;Laerm;63723;51.436;5.976;2023-04-30T00:05:50;56.00;54.31;57.29;;
71030;Laerm;63723;51.436;5.976;2023-04-30T00:06:00;55.97;54.02;57.25;;
71030;Laerm;63723;51.436;5.976;2023-04-30T00:06:11;56.06;54.08;57.39;;
71030;Laerm;63723;51.436;5.976;2023-04-30T00:06:21;55.73;54.03;56.91;;
71030;Laerm;63723;51.436;5.976;2023-04-30T00:06:31;55.73;53.99;57.06;;
71030;Laerm;63723;51.436;5.976;2023-04-30T00:06:42;55.67;53.92;57.04;;
71030;Laerm;63723;51.436;5.976;2023-04-30T00:06:52;55.70;53.81;57.15;;
71030;Laerm;63723;51.436;5.976;2023-04-30T00:07:02;55.66;54.02;56.90;;
71030;Laerm;63723;51.436;5.976;2023-04-30T00:07:13;55.63;53.95;56.78;;
71030;Laerm;63723;51.436;5.976;2023-04-30T00:07:23;55.63;53.99;57.00;;
71030;Laerm;63723;51.436;5.976;2023-04-30T00:07:33;55.66;53.92;56.80;;
71030;Laerm;63723;51.436;5.976;2023-04-30T00:07:43;55.60;53.76;56.86;;
71030;Laerm;63723;51.436;5.976;2023-04-30T00:07:54;55.62;54.17;56.93;;
71030;Laerm;63723;51.436;5.976;2023-04-30T00:08:04;55.57;53.62;56.56;;
71030;Laerm;63723;51.436;5.976;2023-04-30T00:08:14;55.66;54.35;56.79;;
71030;Laerm;63723;51.436;5.976;2023-04-30T00:08:25;55.70;54.17;56.93;;
71030;Laerm;63723;51.436;5.976;2023-04-30T00:08:35;55.56;53.87;56.86;;
71030;Laerm;63723;51.436;5.976;2023-04-30T00:08:46;55.67;54.30;56.64;;
71030;Laerm;63723;51.436;5.976;2023-04-30T00:08:56;55.64;54.20;56.93;;
71030;Laerm;63723;51.436;5.976;2023-04-30T00:09:06;55.59;54.10;57.00;;
71030;Laerm;63723;51.436;5.976;2023-04-30T00:09:17;55.56;53.75;56.74;;
71030;Laerm;63723;51.436;5.976;2023-04-30T00:09:27;55.62;53.75;56.79;;
71030;Laerm;63723;51.436;5.976;2023-04-30T00:09:37;55.64;54.03;57.02;;
71030;Laerm;63723;51.436;5.976;2023-04-30T00:09:47;55.61;54.05;56.66;;
71030;Laerm;63723;51.436;5.976;2023-04-30T00:09:58;55.59;54.15;56.69;;
71030;Laerm;63723;51.436;5.976;2023-04-30T00:10:09;55.46;53.93;56.54;;
71030;Laerm;63723;51.436;5.976;2023-04-30T00:10:19;55.60;54.12;57.12;;
71030;Laerm;63723;51.436;5.976;2023-04-30T00:10:30;55.61;54.06;56.88;;
71030;Laerm;63723;51.436;5.976;2023-04-30T00:10:40;55.81;54.08;57.17;;
71030;Laerm;63723;51.436;5.976;2023-04-30T00:10:50;55.70;53.97;56.73;;
71030;Laerm;63723;51.436;5.976;2023-04-30T00:11:00;55.60;54.00;56.98;;
71030;Laerm;63723;51.436;5.976;2023-04-30T00:11:11;55.69;53.95;56.94;;
71030;Laerm;63723;51.436;5.976;2023-04-30T00:11:21;55.75;54.15;57.09;;
71030;Laerm;63723;51.436;5.976;2023-04-30T00:11:31;55.78;54.22;57.44;;
71030;Laerm;63723;51.436;5.976;2023-04-30T00:11:41;55.79;54.13;56.83;;
71030;Laerm;63723;51.436;5.976;2023-04-30T00:11:52;55.74;54.02;57.06;;
71030;Laerm;63723;51.436;5.976;2023-04-30T00:12:02;55.76;54.26;56.96;;
71030;Laerm;63723;51.436;5.976;2023-04-30T00:12:12;55.77;54.49;56.88;;
71030;Laerm;63723;51.436;5.976;2023-04-30T00:12:22;55.56;53.62;56.66;;
71030;Laerm;63723;51.436;5.976;2023-04-30T00:12:33;55.51;53.89;56.74;;
71030;Laerm;63723;51.436;5.976;2023-04-30T00:12:43;55.50;53.97;56.57;;
71030;Laerm;63723;51.436;5.976;2023-04-30T00:12:53;55.49;54.19;56.66;;
71030;Laerm;63723;51.436;5.976;2023-04-30T00:13:04;55.52;53.86;56.57;;
71030;Laerm;63723;51.436;5.976;2023-04-30T00:13:14;55.52;53.73;56.72;;
71030;Laerm;63723;51.436;5.976;2023-04-30T00:13:24;55.44;54.09;56.69;;
71030;Laerm;63723;51.436;5.976;2023-04-30T00:13:34;55.42;53.63;56.80;;
71030;Laerm;63723;51.436;5.976;2023-04-30T00:13:45;55.54;53.91;56.93;;
71030;Laerm;63723;51.436;5.976;2023-04-30T00:13:55;55.37;53.68;56.53;;
71030;Laerm;63723;51.436;5.976;2023-04-30T00:14:06;55.36;53.73;56.65;;
71030;Laerm;63723;51.436;5.976;2023-04-30T00:14:16;55.41;53.82;56.91;;
71030;Laerm;63723;51.436;5.976;2023-04-30T00:14:26;55.46;53.92;56.85;;
71030;Laerm;63723;51.436;5.976;2023-04-30T00:14:36;55.43;53.66;56.74;;
71030;Laerm;63723;51.436;5.976;2023-04-30T00:14:47;55.39;53.89;56.41;;
71030;Laerm;63723;51.436;5.976;2023-04-30T00:14:58;55.41;53.77;56.83;;
71030;Laerm;63723;51.436;5.976;2023-04-30T00:15:08;55.34;53.66;56.71;;
71030;Laerm;63723;51.436;5.976;2023-04-30T00:15:19;55.39;54.12;56.67;;
71030;Laerm;63723;51.436;5.976;2023-04-30T00:15:29;55.40;53.38;56.61;;
71030;Laerm;63723;51.436;5.976;2023-04-30T00:15:40;55.41;53.93;56.73;;
71030;Laerm;63723;51.436;5.976;2023-04-30T00:15:50;55.50;53.63;56.72;;
71030;Laerm;63723;51.436;5.976;2023-04-30T00:16:01;55.32;53.71;56.68;;
71030;Laerm;63723;51.436;5.976;2023-04-30T00:16:11;55.39;53.77;56.70;;
71030;Laerm;63723;51.436;5.976;2023-04-30T00:16:21;55.43;53.39;56.72;;
71030;Laerm;63723;51.436;5.976;2023-04-30T00:16:32;55.39;54.02;56.51;;
71030;Laerm;63723;51.436;5.976;2023-04-30T00:16:42;55.41;54.01;56.58;;
71030;Laerm;63723;51.436;5.976;2023-04-30T00:16:52;55.41;54.07;56.49;;
71030;Laerm;63723;51.436;5.976;2023-04-30T00:17:02;55.47;54.09;56.80;;
71030;Laerm;63723;51.436;5.976;2023-04-30T00:17:13;55.41;53.79;56.53;;
71030;Laerm;63723;51.436;5.976;2023-04-30T00:17:23;55.35;53.79;56.59;;
71030;Laerm;63723;51.436;5.976;2023-04-30T00:17:33;55.41;53.74;56.50;;
71030;Laerm;63723;51.436;5.976;2023-04-30T00:17:43;55.41;53.81;56.55;;
71030;Laerm;63723;51.436;5.976;2023-04-30T00:17:53;55.47;53.89;56.46;;
71030;Laerm;63723;51.436;5.976;2023-04-30T00:18:04;55.45;53.89;56.43;;
71030;Laerm;63723;51.436;5.976;2023-04-30T00:18:16;55.47;53.91;56.59;;
71030;Laerm;63723;51.436;5.976;2023-04-30T00:18:26;55.48;53.84;56.81;;
71030;Laerm;63723;51.436;5.976;2023-04-30T00:18:36;55.47;53.82;56.68;;
71030;Laerm;63723;51.436;5.976;2023-04-30T00:18:47;55.51;54.02;56.57;;
71030;Laerm;63723;51.436;5.976;2023-04-30T00:18:57;55.53;53.91;56.62;;
71030;Laerm;63723;51.436;5.976;2023-04-30T00:19:07;55.48;53.58;56.69;;
71030;Laerm;63723;51.436;5.976;2023-04-30T00:19:18;55.52;54.30;56.94;;
71030;Laerm;63723;51.436;5.976;2023-04-30T00:19:28;55.47;54.10;56.87;;
71030;Laerm;63723;51.436;5.976;2023-04-30T00:19:38;55.54;54.16;56.81;;
71030;Laerm;63723;51.436;5.976;2023-04-30T00:19:48;55.56;54.23;56.66;;
71030;Laerm;63723;51.436;5.976;2023-04-30T00:19:59;55.55;53.88;56.71;;
71030;Laerm;63723;51.436;5.976;2023-04-30T00:20:10;55.55;53.92;56.79;;
71030;Laerm;63723;51.436;5.976;2023-04-30T00:20:21;55.55;54.20;56.82;;
71030;Laerm;63723;51.436;5.976;2023-04-30T00:20:31;55.54;53.70;56.68;;
71030;Laerm;63723;51.436;5.976;2023-04-30T00:20:43;55.55;54.16;56.49;;
71030;Laerm;63723;51.436;5.976;2023-04-30T00:20:54;55.52;53.78;56.78;;
71030;Laerm;63723;51.436;5.976;2023-04-30T00:21:04;55.58;53.97;56.68;;
71030;Laerm;63723;51.436;5.976;2023-04-30T00:21:14;55.64;54.25;56.83;;
71030;Laerm;63723;51.436;5.976;2023-04-30T00:21:25;55.58;54.00;56.67;;
71030;Laerm;63723;51.436;5.976;2023-04-30T00:21:35;55.51;53.69;56.73;;
71030;Laerm;63723;51.436;5.976;2023-04-30T00:21:45;55.52;53.93;56.81;;
71030;Laerm;63723;51.436;5.976;2023-04-30T00:21:56;55.59;54.00;56.74;;
71030;Laerm;63723;51.436;5.976;2023-04-30T00:22:07;55.72;53.91;57.00;;
71030;Laerm;63723;51.436;5.976;2023-04-30T00:22:17;55.70;54.48;56.90;;
71030;Laerm;63723;51.436;5.976;2023-04-30T00:22:28;55.63;54.14;56.60;;
71030;Laerm;63723;51.436;5.976;2023-04-30T00:22:38;55.63;54.14;57.07;;
71030;Laerm;63723;51.436;5.976;2023-04-30T00:22:48;55.56;53.64;57.19;;
71030;Laerm;63723;51.436;5.976;2023-04-30T00:22:58;55.51;53.84;56.66;;
71030;Laerm;63723;51.436;5.976;2023-04-30T00:23:09;55.44;53.80;56.58;;
71030;Laerm;63723;51.436;5.976;2023-04-30T00:23:19;55.33;53.90;56.61;;
71030;Laerm;63723;51.436;5.976;2023-04-30T00:23:29;55.37;53.49;56.52;;
71030;Laerm;63723;51.436;5.976;2023-04-30T00:23:39;55.41;53.51;56.55;;
71030;Laerm;63723;51.436;5.976;2023-04-30T00:23:50;55.42;53.95;56.34;;
71030;Laerm;63723;51.436;5.976;2023-04-30T00:24:00;55.48;53.48;56.69;;
71030;Laerm;63723;51.436;5.976;2023-04-30T00:24:10;55.46;53.82;56.55;;
71030;Laerm;63723;51.436;5.976;2023-04-30T00:24:21;55.12;53.38;56.80;;
71030;Laerm;63723;51.436;5.976;2023-04-30T00:24:31;55.37;53.45;56.81;;
71030;Laerm;63723;51.436;5.976;2023-04-30T00:24:41;55.44;53.73;56.54;;
71030;Laerm;63723;51.436;5.976;2023-04-30T00:24:51;55.37;54.11;56.60;;
71030;Laerm;63723;51.436;5.976;2023-04-30T00:25:02;55.39;53.97;56.71;;
71030;Laerm;63723;51.436;5.976;2023-04-30T00:25:12;55.38;53.96;56.71;;
71030;Laerm;63723;51.436;5.976;2023-04-30T00:25:22;55.37;53.63;56.47;;
71030;Laerm;63723;51.436;5.976;2023-04-30T00:25:33;55.39;53.66;56.52;;
71030;Laerm;63723;51.436;5.976;2023-04-30T00:25:44;55.43;53.45;56.53;;
71030;Laerm;63723;51.436;5.976;2023-04-30T00:25:54;55.50;53.21;57.07;;
71030;Laerm;63723;51.436;5.976;2023-04-30T00:26:05;55.39;53.73;56.84;;
71030;Laerm;63723;51.436;5.976;2023-04-30T00:26:15;55.36;53.76;56.48;;
71030;Laerm;63723;51.436;5.976;2023-04-30T00:26:25;55.38;53.40;56.52;;
71030;Laerm;63723;51.436;5.976;2023-04-30T00:26:36;55.44;53.84;56.54;;
71030;Laerm;63723;51.436;5.976;2023-04-30T00:26:46;55.35;53.78;56.45;;
71030;Laerm;63723;51.436;5.976;2023-04-30T00:26:56;55.42;53.56;56.33;;
71030;Laerm;63723;51.436;5.976;2023-04-30T00:27:07;55.44;53.37;56.53;;
71030;Laerm;63723;51.436;5.976;2023-04-30T00:27:17;55.38;53.74;56.44;;
71030;Laerm;63723;51.436;5.976;2023-04-30T00:27:27;55.41;53.62;56.55;;
71030;Laerm;63723;51.436;5.976;2023-04-30T00:27:37;55.34;53.68;56.46;;
71030;Laerm;63723;51.436;5.976;2023-04-30T00:27:48;55.22;53.43;56.36;;
71030;Laerm;63723;51.436;5.976;2023-04-30T00:27:58;55.12;52.81;56.20;;
71030;Laerm;63723;51.436;5.976;2023-04-30T00:28:08;55.14;53.36;56.31;;
71030;Laerm;63723;51.436;5.976;2023-04-30T00:28:18;55.29;53.59;56.44;;
71030;Laerm;63723;51.436;5.976;2023-04-30T00:28:29;55.33;53.48;56.47;;
71030;Laerm;63723;51.436;5.976;2023-04-30T00:28:39;55.32;53.75;56.45;;
71030;Laerm;63723;51.436;5.976;2023-04-30T00:28:49;55.54;53.57;56.53;;
71030;Laerm;63723;51.436;5.976;2023-04-30T00:29:00;55.55;54.23;56.84;;
71030;Laerm;63723;51.436;5.976;2023-04-30T00:29:10;55.60;53.15;56.86;;
71030;Laerm;63723;51.436;5.976;2023-04-30T00:29:21;55.61;54.12;56.67;;
71030;Laerm;63723;51.436;5.976;2023-04-30T00:29:31;55.54;53.99;56.61;;
71030;Laerm;63723;51.436;5.976;2023-04-30T00:29:41;55.53;53.96;56.54;;
71030;Laerm;63723;51.436;5.976;2023-04-30T00:29:52;55.55;54.06;56.96;;
71030;Laerm;63723;51.436;5.976;2023-04-30T00:30:02;55.67;53.90;56.74;;
71030;Laerm;63723;51.436;5.976;2023-04-30T00:30:12;55.40;53.83;56.62;;
71030;Laerm;63723;51.436;5.976;2023-04-30T00:30:23;55.44;53.80;56.46;;
71030;Laerm;63723;51.436;5.976;2023-04-30T00:30:33;55.37;53.54;56.66;;
71030;Laerm;63723;51.436;5.976;2023-04-30T00:30:43;55.41;53.10;56.66;;
71030;Laerm;63723;51.436;5.976;2023-04-30T00:30:54;55.37;53.41;56.52;;
71030;Laerm;63723;51.436;5.976;2023-04-30T00:31:04;55.72;53.81;56.88;;
71030;Laerm;63723;51.436;5.976;2023-04-30T00:31:18;55.64;53.90;57.39;;
71030;Laerm;63723;51.436;5.976;2023-04-30T00:31:28;55.40;53.86;56.54;;
71030;Laerm;63723;51.436;5.976;2023-04-30T00:31:38;55.32;53.33;56.52;;
71030;Laerm;63723;51.436;5.976;2023-04-30T00:31:48;55.32;53.69;56.73;;
71030;Laerm;63723;51.436;5.976;2023-04-30T00:31:59;55.36;53.03;56.68;;
71030;Laerm;63723;51.436;5.976;2023-04-30T00:32:09;55.33;53.84;56.51;;
71030;Laerm;63723;51.436;5.976;2023-04-30T00:32:19;55.31;53.29;56.56;;
71030;Laerm;63723;51.436;5.976;2023-04-30T00:32:30;55.36;53.78;56.51;;
71030;Laerm;63723;51.436;5.976;2023-04-30T00:32:40;55.24;53.55;56.47;;
71030;Laerm;63723;51.436;5.976;2023-04-30T00:32:50;55.35;53.73;56.54;;
71030;Laerm;63723;51.436;5.976;2023-04-30T00:33:00;55.34;53.79;56.60;;
71030;Laerm;63723;51.436;5.976;2023-04-30T00:33:11;55.37;53.79;56.88;;
71030;Laerm;63723;51.436;5.976;2023-04-30T00:33:21;55.45;54.04;56.59;;
71030;Laerm;63723;51.436;5.976;2023-04-30T00:33:31;55.34;53.83;56.65;;
71030;Laerm;63723;51.436;5.976;2023-04-30T00:33:41;55.35;53.57;56.34;;
71030;Laerm;63723;51.436;5.976;2023-04-30T00:33:52;55.37;53.70;56.55;;
71030;Laerm;63723;51.436;5.976;2023-04-30T00:34:02;55.23;52.91;56.32;;
71030;Laerm;63723;51.436;5.976;2023-04-30T00:34:12;55.23;53.88;56.33;;
71030;Laerm;63723;51.436;5.976;2023-04-30T00:34:22;55.25;53.51;56.31;;
71030;Laerm;63723;51.436;5.976;2023-04-30T00:34:33;55.32;53.84;56.74;;
71030;Laerm;63723;51.436;5.976;2023-04-30T00:34:43;55.24;53.90;56.41;;
71030;Laerm;63723;51.436;5.976;2023-04-30T00:34:53;55.27;53.23;56.61;;
71030;Laerm;63723;51.436;5.976;2023-04-30T00:35:03;55.30;53.29;56.37;;
71030;Laerm;63723;51.436;5.976;2023-04-30T00:35:14;55.31;52.53;56.60;;
71030;Laerm;63723;51.436;5.976;2023-04-30T00:35:25;55.41;53.42;56.51;;
71030;Laerm;63723;51.436;5.976;2023-04-30T00:35:35;55.26;53.60;56.39;;
71030;Laerm;63723;51.436;5.976;2023-04-30T00:35:45;55.20;53.74;56.23;;
71030;Laerm;63723;51.436;5.976;2023-04-30T00:35:56;55.24;53.59;56.36;;
71030;Laerm;63723;51.436;5.976;2023-04-30T00:36:06;55.23;53.44;56.36;;
71030;Laerm;63723;51.436;5.976;2023-04-30T00:36:16;55.13;53.27;56.20;;
71030;Laerm;63723;51.436;5.976;2023-04-30T00:36:26;55.06;53.44;56.30;;
71030;Laerm;63723;51.436;5.976;2023-04-30T00:36:37;55.05;53.11;56.21;;
71030;Laerm;63723;51.436;5.976;2023-04-30T00:36:48;55.04;53.22;56.25;;
71030;Laerm;63723;51.436;5.976;2023-04-30T00:36:58;55.04;53.38;56.60;;
71030;Laerm;63723;51.436;5.976;2023-04-30T00:37:08;55.13;53.18;56.28;;
71030;Laerm;63723;51.436;5.976;2023-04-30T00:37:19;55.12;53.24;56.37;;
71030;Laerm;63723;51.436;5.976;2023-04-30T00:37:29;55.04;53.51;56.21;;
71030;Laerm;63723;51.436;5.976;2023-04-30T00:37:39;55.10;53.52;56.41;;
71030;Laerm;63723;51.436;5.976;2023-04-30T00:37:50;55.17;53.27;56.18;;
71030;Laerm;63723;51.436;5.976;2023-04-30T00:38:00;55.07;53.17;56.73;;
71030;Laerm;63723;51.436;5.976;2023-04-30T00:38:10;55.08;53.36;56.22;;
71030;Laerm;63723;51.436;5.976;2023-04-30T00:38:20;55.08;53.39;56.25;;
71030;Laerm;63723;51.436;5.976;2023-04-30T00:38:31;55.13;53.19;56.26;;
71030;Laerm;63723;51.436;5.976;2023-04-30T00:38:41;55.14;53.11;56.32;;
71030;Laerm;63723;51.436;5.976;2023-04-30T00:38:51;55.15;53.41;56.47;;
71030;Laerm;63723;51.436;5.976;2023-04-30T00:39:02;55.11;53.40;56.20;;
71030;Laerm;63723;51.436;5.976;2023-04-30T00:39:12;55.05;53.44;56.37;;
71030;Laerm;63723;51.436;5.976;2023-04-30T00:39:22;55.13;53.55;56.42;;
71030;Laerm;63723;51.436;5.976;2023-04-30T00:39:32;55.12;53.55;56.28;;
71030;Laerm;63723;51.436;5.976;2023-04-30T00:39:43;55.14;53.56;56.66;;
71030;Laerm;63723;51.436;5.976;2023-04-30T00:39:53;55.17;53.38;56.32;;
71030;Laerm;63723;51.436;5.976;2023-04-30T00:40:03;55.19;53.27;56.30;;
71030;Laerm;63723;51.436;5.976;2023-04-30T00:40:13;55.14;53.37;56.19;;
71030;Laerm;63723;51.436;5.976;2023-04-30T00:40:24;55.09;53.35;56.12;;
71030;Laerm;63723;51.436;5.976;2023-04-30T00:40:34;55.15;53.56;56.30;;
71030;Laerm;63723;51.436;5.976;2023-04-30T00:40:45;55.15;53.86;56.33;;
71030;Laerm;63723;51.436;5.976;2023-04-30T00:40:55;55.07;53.59;56.35;;
71030;Laerm;63723;51.436;5.976;2023-04-30T00:41:06;55.14;53.78;56.25;;
71030;Laerm;63723;51.436;5.976;2023-04-30T00:41:16;55.23;53.56;56.27;;
71030;Laerm;63723;51.436;5.976;2023-04-30T00:41:27;55.17;53.43;56.43;;
71030;Laerm;63723;51.436;5.976;2023-04-30T00:41:38;55.18;53.64;56.33;;
71030;Laerm;63723;51.436;5.976;2023-04-30T00:41:48;55.26;53.71;56.65;;
71030;Laerm;63723;51.436;5.976;2023-04-30T00:41:59;55.23;53.72;56.48;;
71030;Laerm;63723;51.436;5.976;2023-04-30T00:42:09;55.10;53.20;56.59;;
71030;Laerm;63723;51.436;5.976;2023-04-30T00:42:19;55.17;53.81;56.60;;
71030;Laerm;63723;51.436;5.976;2023-04-30T00:42:29;55.28;53.50;56.60;;
71030;Laerm;63723;51.436;5.976;2023-04-30T00:42:40;55.43;53.91;56.66;;
71030;Laerm;63723;51.436;5.976;2023-04-30T00:42:50;55.39;54.00;56.74;;
71030;Laerm;63723;51.436;5.976;2023-04-30T00:43:03;55.42;53.64;56.66;;
71030;Laerm;63723;51.436;5.976;2023-04-30T00:43:13;55.46;54.12;56.74;;
71030;Laerm;63723;51.436;5.976;2023-04-30T00:43:24;55.39;53.50;56.57;;
71030;Laerm;63723;51.436;5.976;2023-04-30T00:43:34;55.43;53.76;56.67;;
71030;Laerm;63723;51.436;5.976;2023-04-30T00:43:44;55.35;53.93;56.62;;
71030;Laerm;63723;51.436;5.976;2023-04-30T00:43:56;55.43;53.91;56.79;;
71030;Laerm;63723;51.436;5.976;2023-04-30T00:44:06;55.32;53.50;56.85;;
71030;Laerm;63723;51.436;5.976;2023-04-30T00:44:16;55.41;53.38;56.48;;
71030;Laerm;63723;51.436;5.976;2023-04-30T00:44:26;55.44;53.82;56.55;;
71030;Laerm;63723;51.436;5.976;2023-04-30T00:44:37;55.38;54.05;56.50;;
71030;Laerm;63723;51.436;5.976;2023-04-30T00:44:47;55.39;53.79;56.49;;
71030;Laerm;63723;51.436;5.976;2023-04-30T00:44:57;55.35;53.72;56.50;;
71030;Laerm;63723;51.436;5.976;2023-04-30T00:45:07;55.46;54.15;56.58;;
71030;Laerm;63723;51.436;5.976;2023-04-30T00:45:18;55.53;53.82;56.78;;
71030;Laerm;63723;51.436;5.976;2023-04-30T00:45:31;55.42;53.19;56.50;;
71030;Laerm;63723;51.436;5.976;2023-04-30T00:45:41;55.45;53.66;56.61;;
71030;Laerm;63723;51.436;5.976;2023-04-30T00:45:51;55.41;53.83;56.59;;
71030;Laerm;63723;51.436;5.976;2023-04-30T00:46:01;55.37;53.58;56.52;;
71030;Laerm;63723;51.436;5.976;2023-04-30T00:46:14;55.37;53.67;56.96;;
71030;Laerm;63723;51.436;5.976;2023-04-30T00:46:24;55.30;53.35;56.88;;
71030;Laerm;63723;51.436;5.976;2023-04-30T00:46:34;55.29;53.63;56.45;;
71030;Laerm;63723;51.436;5.976;2023-04-30T00:46:45;55.27;53.87;56.53;;
71030;Laerm;63723;51.436;5.976;2023-04-30T00:46:55;55.14;53.49;56.40;;
71030;Laerm;63723;51.436;5.976;2023-04-30T00:47:05;55.15;53.71;56.26;;
71030;Laerm;63723;51.436;5.976;2023-04-30T00:47:15;55.15;53.50;56.41;;
71030;Laerm;63723;51.436;5.976;2023-04-30T00:47:26;55.06;53.42;56.57;;
71030;Laerm;63723;51.436;5.976;2023-04-30T00:47:36;55.12;53.74;56.19;;
71030;Laerm;63723;51.436;5.976;2023-04-30T00:47:47;55.05;53.79;56.43;;
71030;Laerm;63723;51.436;5.976;2023-04-30T00:47:57;55.02;53.12;56.17;;
71030;Laerm;63723;51.436;5.976;2023-04-30T00:48:07;54.98;53.19;56.15;;
71030;Laerm;63723;51.436;5.976;2023-04-30T00:48:18;54.97;53.46;56.13;;
71030;Laerm;63723;51.436;5.976;2023-04-30T00:48:28;54.98;53.64;56.15;;
71030;Laerm;63723;51.436;5.976;2023-04-30T00:48:38;55.05;53.54;56.37;;
71030;Laerm;63723;51.436;5.976;2023-04-30T00:48:49;54.93;53.35;56.23;;
71030;Laerm;63723;51.436;5.976;2023-04-30T00:48:59;54.91;53.28;56.58;;
71030;Laerm;63723;51.436;5.976;2023-04-30T00:49:13;54.93;53.28;56.13;;
71030;Laerm;63723;51.436;5.976;2023-04-30T00:49:24;54.96;53.19;56.26;;
71030;Laerm;63723;51.436;5.976;2023-04-30T00:49:34;54.96;53.41;56.02;;
71030;Laerm;63723;51.436;5.976;2023-04-30T00:49:45;54.95;53.44;56.00;;
71030;Laerm;63723;51.436;5.976;2023-04-30T00:49:55;55.01;53.72;56.22;;
71030;Laerm;63723;51.436;5.976;2023-04-30T00:50:06;54.93;53.17;56.82;;
71030;Laerm;63723;51.436;5.976;2023-04-30T00:50:16;54.99;53.58;56.31;;
71030;Laerm;63723;51.436;5.976;2023-04-30T00:50:27;54.98;53.55;56.44;;
71030;Laerm;63723;51.436;5.976;2023-04-30T00:50:37;54.95;53.34;56.04;;
71030;Laerm;63723;51.436;5.976;2023-04-30T00:50:48;55.07;53.22;56.98;;
71030;Laerm;63723;51.436;5.976;2023-04-30T00:51:00;54.98;53.48;55.96;;
71030;Laerm;63723;51.436;5.976;2023-04-30T00:51:11;54.92;53.20;56.35;;
71030;Laerm;63723;51.436;5.976;2023-04-30T00:51:22;55.00;53.52;56.16;;
71030;Laerm;63723;51.436;5.976;2023-04-30T00:51:32;55.02;53.22;56.15;;
71030;Laerm;63723;51.436;5.976;2023-04-30T00:51:44;54.94;52.88;56.25;;
71030;Laerm;63723;51.436;5.976;2023-04-30T00:51:54;54.94;53.64;56.08;;
71030;Laerm;63723;51.436;5.976;2023-04-30T00:52:04;54.95;52.80;56.23;;
71030;Laerm;63723;51.436;5.976;2023-04-30T00:52:15;55.01;53.52;56.08;;
71030;Laerm;63723;51.436;5.976;2023-04-30T00:52:25;54.96;53.46;56.11;;
71030;Laerm;63723;51.436;5.976;2023-04-30T00:52:36;54.94;53.52;56.28;;
71030;Laerm;63723;51.436;5.976;2023-04-30T00:52:46;55.26;53.48;57.32;;
71030;Laerm;63723;51.436;5.976;2023-04-30T00:52:56;54.96;53.69;56.20;;
71030;Laerm;63723;51.436;5.976;2023-04-30T00:53:08;54.87;53.30;56.03;;
71030;Laerm;63723;51.436;5.976;2023-04-30T00:53:19;54.91;53.35;56.17;;
71030;Laerm;63723;51.436;5.976;2023-04-30T00:53:30;54.95;53.48;56.07;;
71030;Laerm;63723;51.436;5.976;2023-04-30T00:53:40;55.32;53.43;57.01;;
71030;Laerm;63723;51.436;5.976;2023-04-30T00:53:50;54.93;53.04;56.21;;
71030;Laerm;63723;51.436;5.976;2023-04-30T00:54:01;54.94;53.36;56.23;;
71030;Laerm;63723;51.436;5.976;2023-04-30T00:54:12;54.85;53.38;56.04;;
71030;Laerm;63723;51.436;5.976;2023-04-30T00:54:23;54.82;53.49;56.37;;
71030;Laerm;63723;51.436;5.976;2023-04-30T00:54:34;54.99;53.38;56.18;;
71030;Laerm;63723;51.436;5.976;2023-04-30T00:54:45;54.93;53.02;56.04;;
71030;Laerm;63723;51.436;5.976;2023-04-30T00:54:55;54.96;53.15;56.32;;
71030;Laerm;63723;51.436;5.976;2023-04-30T00:55:06;54.92;53.40;56.04;;
71030;Laerm;63723;51.436;5.976;2023-04-30T00:55:16;54.90;53.09;56.21;;
71030;Laerm;63723;51.436;5.976;2023-04-30T00:55:27;55.00;53.34;56.45;;
71030;Laerm;63723;51.436;5.976;2023-04-30T00:55:38;54.94;53.50;56.29;;
71030;Laerm;63723;51.436;5.976;2023-04-30T00:55:49;54.98;53.40;56.29;;
71030;Laerm;63723;51.436;5.976;2023-04-30T00:56:00;54.59;52.90;55.84;;
71030;Laerm;63723;51.436;5.976;2023-04-30T00:56:10;54.62;53.25;55.78;;
71030;Laerm;63723;51.436;5.976;2023-04-30T00:56:22;54.68;52.71;56.24;;
71030;Laerm;63723;51.436;5.976;2023-04-30T00:56:32;54.62;52.93;55.77;;
71030;Laerm;63723;51.436;5.976;2023-04-30T00:56:42;54.57;52.91;55.81;;
71030;Laerm;63723;51.436;5.976;2023-04-30T00:56:53;54.53;52.58;55.84;;
71030;Laerm;63723;51.436;5.976;2023-04-30T00:57:03;54.65;52.60;56.13;;
71030;Laerm;63723;51.436;5.976;2023-04-30T00:57:14;54.55;52.88;55.79;;
71030;Laerm;63723;51.436;5.976;2023-04-30T00:57:25;54.45;52.54;55.64;;
71030;Laerm;63723;51.436;5.976;2023-04-30T00:57:35;54.38;52.46;55.81;;
71030;Laerm;63723;51.436;5.976;2023-04-30T00:57:46;54.31;52.64;55.65;;
71030;Laerm;63723;51.436;5.976;2023-04-30T00:57:58;54.38;52.77;55.59;;
71030;Laerm;63723;51.436;5.976;2023-04-30T00:58:09;54.30;52.67;55.68;;
71030;Laerm;63723;51.436;5.976;2023-04-30T00:58:19;54.37;52.81;55.74;;
71030;Laerm;63723;51.436;5.976;2023-04-30T00:58:30;54.27;52.34;55.71;;